createdAt,value
2023-04-13T00:02:41.780Z,15.83
2023-04-13T00:08:45.072Z,9.77
2023-04-13T00:14:50.735Z,7.80
2023-04-13T00:20:52.654Z,11.13
2023-04-13T00:26:54.607Z,8.37
2023-04-13T00:32:56.627Z,9.27
2023-04-13T00:38:58.885Z,8.40
2023-04-13T00:45:00.772Z,9.23
2023-04-13T00:51:03.811Z,7.70
2023-04-13T00:57:06.814Z,7.13
2023-04-13T01:03:09.794Z,9.77
2023-04-13T01:09:20.085Z,8.00
2023-04-13T01:15:23.223Z,10.60
2023-04-13T01:21:29.152Z,10.30
2023-04-13T01:27:52.738Z,9.37
2023-04-13T01:33:54.710Z,9.57
2023-04-13T01:39:56.571Z,8.07
2023-04-13T01:46:13.936Z,7.57
2023-04-13T01:52:17.750Z,10.77
2023-04-13T01:58:20.612Z,8.97
2023-04-13T02:04:23.411Z,6.67
2023-04-13T02:10:26.513Z,8.60
2023-04-13T02:16:28.550Z,6.60
2023-04-13T02:22:30.437Z,6.70
2023-04-13T02:28:33.058Z,8.70
2023-04-13T02:34:35.526Z,4.77
2023-04-13T02:40:38.769Z,5.00
2023-04-13T02:46:40.880Z,4.03
2023-04-13T02:52:43.836Z,4.23
2023-04-13T02:58:45.919Z,5.63
2023-04-13T03:04:48.826Z,5.83
2023-04-13T03:10:52.328Z,5.20
2023-04-13T03:16:54.573Z,3.70
2023-04-13T03:22:58.504Z,3.27
2023-04-13T03:29:00.408Z,4.83
2023-04-13T03:35:02.336Z,3.17
2023-04-13T03:41:04.523Z,3.57
2023-04-13T03:47:09.523Z,2.97
2023-04-13T03:53:11.388Z,2.50
2023-04-13T03:59:13.268Z,2.20
2023-04-13T04:05:16.425Z,3.00
2023-04-13T04:11:18.537Z,4.40
2023-04-13T04:17:20.999Z,2.60
2023-04-13T04:23:23.238Z,2.77
2023-04-13T04:29:34.563Z,5.07
2023-04-13T04:35:43.193Z,2.17
2023-04-13T04:41:45.115Z,3.80
2023-04-13T04:47:49.988Z,2.20
2023-04-13T04:53:53.123Z,2.00
2023-04-13T04:59:55.143Z,3.80
2023-04-13T05:05:57.023Z,2.77
2023-04-13T05:11:58.917Z,2.17
2023-04-13T05:18:00.838Z,5.97
2023-04-13T05:24:02.819Z,1.10
2023-04-13T05:30:06.188Z,3.93
2023-04-13T05:36:08.634Z,1.20
2023-04-13T05:42:10.856Z,4.57
2023-04-13T05:48:13.141Z,1.30
2023-04-13T05:54:15.071Z,2.97
2023-04-13T06:00:19.418Z,1.20
2023-04-13T06:06:21.496Z,7.23
2023-04-13T06:12:23.985Z,1.50
2023-04-13T06:18:29.140Z,2.90
2023-04-13T06:24:31.019Z,2.77
2023-04-13T06:30:33.259Z,1.93
2023-04-13T06:36:35.741Z,4.17
2023-04-13T06:42:38.359Z,2.70
2023-04-13T06:48:40.518Z,3.97
2023-04-13T06:54:42.417Z,3.17
2023-04-13T07:00:44.426Z,3.10
2023-04-13T07:06:46.981Z,3.40
2023-04-13T07:12:48.960Z,3.30
2023-04-13T07:18:50.885Z,2.80
2023-04-13T07:24:52.760Z,2.70
2023-04-13T07:30:54.689Z,4.50
2023-04-13T07:36:56.880Z,3.93
2023-04-13T07:42:58.805Z,5.63
2023-04-13T07:49:01.017Z,4.33
2023-04-13T07:55:03.606Z,1.70
2023-04-13T08:01:06.465Z,7.33
2023-04-13T08:07:08.404Z,4.53
2023-04-13T08:13:10.332Z,3.97
2023-04-13T08:19:13.273Z,4.00
2023-04-13T08:25:15.598Z,1.83
2023-04-13T08:31:17.591Z,5.93
2023-04-13T08:37:20.863Z,5.03
2023-04-13T08:43:22.814Z,3.33
2023-04-13T08:49:25.987Z,2.47
2023-04-13T08:55:29.391Z,1.83
2023-04-13T09:01:36.360Z,3.23
2023-04-13T09:07:38.798Z,3.20
2023-04-13T09:13:41.371Z,4.53
2023-04-13T09:19:43.246Z,2.03
2023-04-13T09:25:47.217Z,5.20
2023-04-13T09:31:49.268Z,1.80
2023-04-13T09:37:55.994Z,3.50
2023-04-13T09:44:20.752Z,2.27
2023-04-13T09:50:28.859Z,1.90
2023-04-13T09:56:31.957Z,2.97
2023-04-13T10:02:34.147Z,2.33
2023-04-13T10:08:41.963Z,1.20
2023-04-13T10:14:48.736Z,1.00
2023-04-13T10:20:52.553Z,2.83
2023-04-13T10:26:56.239Z,3.47
2023-04-13T10:33:09.881Z,2.23
2023-04-13T10:39:12.054Z,3.00
2023-04-13T10:45:18.089Z,1.40
2023-04-13T10:51:20.199Z,3.43
2023-04-13T10:57:22.157Z,2.20
2023-04-13T11:03:28.708Z,1.57
2023-04-13T11:09:31.716Z,1.40
2023-04-13T11:15:34.173Z,1.87
2023-04-13T11:21:36.050Z,1.33
2023-04-13T11:27:38.288Z,1.77
2023-04-13T11:33:41.028Z,2.27
2023-04-13T11:39:46.383Z,1.63
2023-04-13T11:45:48.998Z,0.80
2023-04-13T11:51:51.585Z,4.87
2023-04-13T11:57:54.516Z,1.20
2023-04-13T12:04:14.753Z,1.13
2023-04-13T12:10:39.269Z,1.70
2023-04-13T12:17:03.994Z,1.13
2023-04-13T12:23:24.845Z,1.67
2023-04-13T12:29:27.122Z,1.07
2023-04-13T12:35:29.035Z,1.73
2023-04-13T12:41:32.331Z,0.87
2023-04-13T12:47:34.454Z,1.43
2023-04-13T12:53:36.464Z,2.10
2023-04-13T12:59:38.572Z,2.13
2023-04-13T13:05:40.627Z,1.33
2023-04-13T13:11:42.529Z,1.60
2023-04-13T13:17:44.536Z,0.90
2023-04-13T13:23:46.558Z,0.70
2023-04-13T13:29:48.544Z,2.87
2023-04-13T13:35:50.441Z,2.20
2023-04-13T13:41:52.338Z,1.10
2023-04-13T13:47:58.382Z,1.47
2023-04-13T13:54:00.374Z,1.30
2023-04-13T14:00:05.097Z,1.87
2023-04-13T14:06:07.814Z,1.00
2023-04-13T14:12:09.910Z,1.03
2023-04-13T14:18:12.102Z,1.20
2023-04-13T14:24:14.149Z,1.00
2023-04-13T14:30:17.670Z,0.80
2023-04-13T14:36:19.581Z,1.40
2023-04-13T14:42:22.422Z,1.10
2023-04-13T14:48:24.772Z,1.50
2023-04-13T14:54:26.699Z,1.07
2023-04-13T15:00:41.316Z,1.30
2023-04-13T15:06:43.779Z,2.00
2023-04-13T15:12:45.877Z,1.03
2023-04-13T15:18:47.784Z,3.43
2023-04-13T15:24:49.748Z,1.30
2023-04-13T15:30:54.577Z,9.03
2023-04-13T15:36:57.059Z,3.23
2023-04-13T15:42:59.049Z,2.13
2023-04-13T15:49:01.314Z,4.20
2023-04-13T15:55:03.739Z,1.33
2023-04-13T16:01:09.377Z,3.53
2023-04-13T16:07:14.344Z,3.30
2023-04-13T16:13:19.736Z,3.87
2023-04-13T16:19:21.681Z,4.20
2023-04-13T16:25:23.867Z,1.60
2023-04-13T16:31:26.153Z,1.77
2023-04-13T16:37:28.049Z,1.70
2023-04-13T16:43:29.948Z,2.23
2023-04-13T16:49:32.498Z,1.90
2023-04-13T16:55:34.388Z,1.50
2023-04-13T17:01:39.106Z,2.47
2023-04-13T17:07:44.503Z,4.10
2023-04-13T17:13:46.857Z,1.70
2023-04-13T17:19:51.286Z,1.80
2023-04-13T17:25:53.904Z,2.80
2023-04-13T17:31:56.565Z,5.90
2023-04-13T17:37:58.465Z,1.80
2023-04-13T17:44:01.519Z,3.57
2023-04-13T17:50:03.575Z,3.00
2023-04-13T17:56:05.885Z,6.43
2023-04-13T18:02:07.858Z,2.50
2023-04-13T18:08:09.805Z,2.93
2023-04-13T18:14:13.114Z,1.30
2023-04-13T18:20:15.014Z,2.17
2023-04-13T18:26:17.213Z,3.83
2023-04-13T18:32:19.171Z,1.83
2023-04-13T18:38:21.491Z,1.77
2023-04-13T18:44:23.584Z,1.90
2023-04-13T18:50:26.679Z,1.50
2023-04-13T18:56:28.611Z,1.33
2023-04-13T19:02:30.731Z,1.30
2023-04-13T19:08:32.939Z,1.20
2023-04-13T19:14:34.879Z,1.27
2023-04-13T19:20:36.774Z,1.00
2023-04-13T19:26:42.826Z,1.17
2023-04-13T19:32:46.841Z,1.00
2023-04-13T19:38:48.918Z,2.47
2023-04-13T19:44:51.629Z,1.20
2023-04-13T19:50:53.572Z,1.70
2023-04-13T19:56:55.688Z,1.10
2023-04-13T20:03:03.051Z,1.40
2023-04-13T20:09:14.390Z,1.07
2023-04-13T20:15:17.577Z,1.40
2023-04-13T20:21:19.484Z,1.37
2023-04-13T20:27:22.632Z,1.33
2023-04-13T20:33:24.615Z,3.80
2023-04-13T20:39:30.162Z,1.43
2023-04-13T20:45:32.204Z,1.90
2023-04-13T20:51:34.214Z,2.87
2023-04-13T20:57:41.684Z,4.00
2023-04-13T21:03:43.793Z,5.37
2023-04-13T21:09:46.164Z,13.50
2023-04-13T21:15:48.121Z,2.10
2023-04-13T21:21:50.005Z,2.97
2023-04-13T21:27:52.028Z,1.23
2023-04-13T21:33:55.246Z,4.60
2023-04-13T21:39:57.813Z,2.00
2023-04-13T21:45:59.786Z,1.50
2023-04-13T21:52:01.771Z,2.10
2023-04-13T21:58:03.717Z,2.10
2023-04-13T22:04:06.261Z,2.30
2023-04-13T22:10:08.826Z,5.43
2023-04-13T22:16:10.894Z,2.77
2023-04-13T22:22:12.813Z,1.20
2023-04-13T22:28:14.695Z,3.23
2023-04-13T22:34:16.640Z,2.50
2023-04-13T22:40:18.755Z,7.30
2023-04-13T22:46:20.841Z,5.00
2023-04-13T22:52:22.782Z,4.20
2023-04-13T22:58:24.762Z,4.03
2023-04-13T23:04:26.865Z,4.43
2023-04-13T23:10:31.503Z,2.30
2023-04-13T23:16:34.542Z,2.73
2023-04-13T23:22:37.269Z,3.00
2023-04-13T23:28:39.228Z,2.33
2023-04-13T23:34:41.242Z,3.23
2023-04-13T23:40:43.177Z,4.50
2023-04-13T23:46:45.564Z,4.83
2023-04-13T23:52:47.487Z,2.33
2023-04-13T23:58:49.418Z,1.90
